createdAt,value
2017-08-24T00:03:08.092Z,20.65
2017-08-24T00:08:10.749Z,20.76
2017-08-24T00:13:12.739Z,20.74
2017-08-24T00:18:14.696Z,20.90
2017-08-24T00:23:16.638Z,20.77
2017-08-24T00:28:18.560Z,20.89
2017-08-24T00:33:20.496Z,20.76
2017-08-24T00:38:22.455Z,20.79
2017-08-24T00:43:24.528Z,20.80
2017-08-24T00:48:26.575Z,20.90
2017-08-24T00:53:28.584Z,20.88
2017-08-24T00:58:30.541Z,20.84
2017-08-24T01:03:32.506Z,20.73
2017-08-24T01:08:34.525Z,20.84
2017-08-24T01:13:36.480Z,20.81
2017-08-24T01:18:38.466Z,20.78
2017-08-24T01:23:40.708Z,20.74
2017-08-24T01:28:42.707Z,20.73
2017-08-24T01:33:44.660Z,20.70
2017-08-24T01:38:46.593Z,20.84
2017-08-24T01:43:48.523Z,20.86
2017-08-24T01:48:50.444Z,20.90
2017-08-24T01:53:52.393Z,20.96
2017-08-24T01:58:54.308Z,20.86
2017-08-24T02:03:56.271Z,20.62
2017-08-24T02:08:58.252Z,20.53
2017-08-24T02:14:00.164Z,20.66
2017-08-24T02:19:02.094Z,20.87
2017-08-24T02:24:04.072Z,20.86
2017-08-24T02:29:06.029Z,20.88
2017-08-24T02:34:07.999Z,20.92
2017-08-24T02:39:09.982Z,21.08
2017-08-24T02:44:11.952Z,21.17
2017-08-24T02:49:18.914Z,21.16
2017-08-24T02:54:24.238Z,21.15
2017-08-24T02:59:27.545Z,21.19
2017-08-24T03:04:29.768Z,21.21
2017-08-24T03:09:32.919Z,21.17
2017-08-24T03:14:37.530Z,20.84
2017-08-24T03:19:41.199Z,20.73
2017-08-24T03:24:44.247Z,20.65
2017-08-24T03:29:46.616Z,20.71
2017-08-24T03:34:48.974Z,20.74
2017-08-24T03:39:51.320Z,20.72
2017-08-24T03:44:53.571Z,20.71
2017-08-24T03:49:56.908Z,20.75
2017-08-24T03:54:59.154Z,20.73
2017-08-24T04:00:01.401Z,20.74
2017-08-24T04:05:03.680Z,20.79
2017-08-24T04:10:07.336Z,20.93
2017-08-24T04:15:10.771Z,21.05
2017-08-24T04:20:13.110Z,21.11
2017-08-24T04:25:15.367Z,21.25
2017-08-24T04:30:17.548Z,21.29
2017-08-24T04:35:19.836Z,21.22
2017-08-24T04:40:22.135Z,21.23
2017-08-24T04:45:24.632Z,21.33
2017-08-24T04:50:26.948Z,21.29
2017-08-24T04:55:29.197Z,21.36
2017-08-24T05:00:31.423Z,21.42
2017-08-24T05:05:33.879Z,21.49
2017-08-24T05:10:36.512Z,21.46
2017-08-24T05:15:38.753Z,21.59
2017-08-24T05:20:41.016Z,21.63
2017-08-24T05:25:43.246Z,21.67
2017-08-24T05:30:45.590Z,21.71
2017-08-24T05:35:47.917Z,21.74
2017-08-24T05:40:50.229Z,21.75
2017-08-24T05:45:52.531Z,21.81
2017-08-24T05:50:55.006Z,21.93
2017-08-24T05:55:57.264Z,22.06
2017-08-24T06:00:59.576Z,22.31
2017-08-24T06:06:01.738Z,22.36
2017-08-24T06:11:03.973Z,22.44
2017-08-24T06:16:06.318Z,22.64
2017-08-24T06:21:08.713Z,22.80
2017-08-24T06:26:11.000Z,23.01
2017-08-24T06:31:13.321Z,23.14
2017-08-24T06:36:15.520Z,23.11
2017-08-24T06:41:17.849Z,23.03
2017-08-24T06:46:20.075Z,23.05
2017-08-24T06:51:22.334Z,23.01
2017-08-24T06:56:24.510Z,23.06
2017-08-24T07:01:26.793Z,23.39
2017-08-24T07:06:29.020Z,23.69
2017-08-24T07:11:31.603Z,24.23
2017-08-24T07:16:34.035Z,24.29
2017-08-24T07:21:36.738Z,24.47
2017-08-24T07:26:39.499Z,24.75
2017-08-24T07:31:49.373Z,24.74
2017-08-24T07:36:58.344Z,24.86
2017-08-24T07:42:08.006Z,24.80
2017-08-24T07:47:16.463Z,24.45
2017-08-24T07:52:24.076Z,24.56
2017-08-24T07:57:28.215Z,24.84
2017-08-24T08:02:30.926Z,25.13
2017-08-24T08:07:33.266Z,25.08
2017-08-24T08:12:35.586Z,25.12
2017-08-24T08:17:38.061Z,25.14
2017-08-24T08:22:40.489Z,25.39
2017-08-24T08:27:42.911Z,25.50
2017-08-24T08:32:45.219Z,25.55
2017-08-24T08:37:47.623Z,25.48
2017-08-24T08:42:49.918Z,25.53
2017-08-24T08:47:52.167Z,25.89
2017-08-24T08:52:54.440Z,26.05
2017-08-24T08:57:56.851Z,26.47
2017-08-24T09:02:59.128Z,26.31
2017-08-24T09:08:01.457Z,26.29
2017-08-24T09:13:03.982Z,26.24
2017-08-24T09:18:06.253Z,26.07
2017-08-24T09:23:08.471Z,26.09
2017-08-24T09:28:10.679Z,25.56
2017-08-24T09:33:12.930Z,25.29
2017-08-24T09:38:15.346Z,25.68
2017-08-24T09:43:17.792Z,26.48
2017-08-24T09:48:20.118Z,26.64
2017-08-24T09:53:22.439Z,27.11
2017-08-24T09:58:24.772Z,27.74
2017-08-24T10:03:27.056Z,27.83
2017-08-24T10:08:29.332Z,27.23
2017-08-24T10:13:31.652Z,26.42
2017-08-24T10:18:34.047Z,26.19
2017-08-24T10:23:36.329Z,26.42
2017-08-24T10:28:38.809Z,26.83
2017-08-24T10:33:41.241Z,26.79
2017-08-24T10:38:43.475Z,26.90
2017-08-24T10:43:45.847Z,26.93
2017-08-24T10:48:48.295Z,27.34
2017-08-24T10:53:50.503Z,27.93
2017-08-24T10:58:52.706Z,28.17
2017-08-24T11:03:55.382Z,28.21
2017-08-24T11:08:57.809Z,28.54
2017-08-24T11:14:00.008Z,28.75
2017-08-24T11:19:02.314Z,28.84
2017-08-24T11:24:04.604Z,29.23
2017-08-24T11:29:06.919Z,29.29
2017-08-24T11:34:09.276Z,29.26
2017-08-24T11:39:11.536Z,29.64
2017-08-24T11:44:13.798Z,29.76
2017-08-24T11:49:16.036Z,29.49
2017-08-24T11:54:19.050Z,29.07
2017-08-24T11:59:24.488Z,29.06
2017-08-24T12:04:27.261Z,28.27
2017-08-24T12:09:30.426Z,27.76
2017-08-24T12:14:32.613Z,28.17
2017-08-24T12:19:34.986Z,28.66
2017-08-24T12:24:37.309Z,28.90
2017-08-24T12:29:39.743Z,28.77
2017-08-24T12:34:42.144Z,28.66
2017-08-24T12:39:44.551Z,29.06
2017-08-24T12:44:46.810Z,29.33
2017-08-24T12:49:49.047Z,29.49
2017-08-24T12:54:52.560Z,29.24
2017-08-24T12:59:55.913Z,29.05
2017-08-24T13:04:58.428Z,29.24
2017-08-24T13:10:01.795Z,29.50
2017-08-24T13:15:05.387Z,29.31
2017-08-24T13:20:07.846Z,29.08
2017-08-24T13:25:10.020Z,28.79
2017-08-24T13:30:12.310Z,28.77
2017-08-24T13:35:14.490Z,29.11
2017-08-24T13:40:16.647Z,29.16
2017-08-24T13:45:19.038Z,29.34
2017-08-24T13:50:21.221Z,29.29
2017-08-24T13:55:23.413Z,29.23
2017-08-24T14:00:25.614Z,29.12
2017-08-24T14:05:27.865Z,29.17
2017-08-24T14:10:30.104Z,29.04
2017-08-24T14:15:32.528Z,29.24
2017-08-24T14:20:34.843Z,29.31
2017-08-24T14:25:39.787Z,29.25
2017-08-24T14:30:45.533Z,29.56
2017-08-24T14:35:47.749Z,29.79
2017-08-24T14:40:50.019Z,29.85
2017-08-24T14:45:53.073Z,29.73
2017-08-24T14:50:55.384Z,29.22
2017-08-24T14:55:57.612Z,28.80
2017-08-24T15:01:00.758Z,28.81
2017-08-24T15:06:03.082Z,28.76
2017-08-24T15:11:05.336Z,28.54
2017-08-24T15:16:07.659Z,28.30
2017-08-24T15:21:09.931Z,28.38
2017-08-24T15:26:12.147Z,28.56
2017-08-24T15:31:14.612Z,28.62
2017-08-24T15:36:16.987Z,28.47
2017-08-24T15:41:19.380Z,28.59
2017-08-24T15:46:21.624Z,28.81
2017-08-24T15:51:23.998Z,28.51
2017-08-24T15:56:26.299Z,28.21
2017-08-24T16:01:28.636Z,27.91
2017-08-24T16:06:34.032Z,27.79
2017-08-24T16:11:36.358Z,27.58
2017-08-24T16:16:38.734Z,27.59
2017-08-24T16:21:41.183Z,27.49
2017-08-24T16:26:43.546Z,27.10
2017-08-24T16:31:45.789Z,26.84
2017-08-24T16:36:48.004Z,26.84
2017-08-24T16:41:50.499Z,26.86
2017-08-24T16:46:52.748Z,26.78
2017-08-24T16:51:55.102Z,26.56
2017-08-24T16:56:57.710Z,26.43
2017-08-24T17:01:59.963Z,26.28
2017-08-24T17:07:02.249Z,26.15
2017-08-24T17:12:04.500Z,26.02
2017-08-24T17:17:06.689Z,25.83
2017-08-24T17:22:08.864Z,25.63
2017-08-24T17:27:11.465Z,25.24
2017-08-24T17:32:13.676Z,24.99
2017-08-24T17:37:16.008Z,24.68
2017-08-24T17:42:18.376Z,24.53
2017-08-24T17:47:20.809Z,24.43
2017-08-24T17:52:23.400Z,24.61
2017-08-24T17:57:25.773Z,24.20
2017-08-24T18:02:28.099Z,23.68
2017-08-24T18:07:30.521Z,23.39
2017-08-24T18:12:32.743Z,23.24
2017-08-24T18:17:40.495Z,23.19
2017-08-24T18:22:45.062Z,23.23
2017-08-24T18:27:47.501Z,23.28
2017-08-24T18:32:49.745Z,23.25
2017-08-24T18:37:52.000Z,23.30
2017-08-24T18:42:54.196Z,23.31
2017-08-24T18:47:56.595Z,23.29
2017-08-24T18:52:58.859Z,23.16
2017-08-24T18:58:01.204Z,23.07
2017-08-24T19:03:04.538Z,23.01
2017-08-24T19:08:07.307Z,22.99
2017-08-24T19:13:10.820Z,23.02
2017-08-24T19:18:13.418Z,23.03
2017-08-24T19:23:16.026Z,23.02
2017-08-24T19:28:18.286Z,22.99
2017-08-24T19:33:20.491Z,22.96
2017-08-24T19:38:22.868Z,22.86
2017-08-24T19:43:25.246Z,22.84
2017-08-24T19:48:27.627Z,22.66
2017-08-24T19:53:30.203Z,22.56
2017-08-24T19:58:32.618Z,22.54
2017-08-24T20:03:35.134Z,22.47
2017-08-24T20:08:37.473Z,22.43
2017-08-24T20:13:40.883Z,22.34
2017-08-24T20:18:43.120Z,22.28
2017-08-24T20:23:45.371Z,22.24
2017-08-24T20:28:47.691Z,22.27
2017-08-24T20:33:49.986Z,22.29
2017-08-24T20:38:52.446Z,22.36
2017-08-24T20:43:55.720Z,22.44
2017-08-24T20:48:58.000Z,22.40
2017-08-24T20:54:00.249Z,22.27
2017-08-24T20:59:02.455Z,22.14
2017-08-24T21:04:04.853Z,22.08
2017-08-24T21:09:07.104Z,22.00
2017-08-24T21:14:09.524Z,22.05
2017-08-24T21:19:11.885Z,22.02
2017-08-24T21:24:14.213Z,21.93
2017-08-24T21:29:16.530Z,21.97
2017-08-24T21:34:18.788Z,21.96
2017-08-24T21:39:21.177Z,21.78
2017-08-24T21:44:23.611Z,21.72
2017-08-24T21:49:26.038Z,21.61
2017-08-24T21:54:28.494Z,21.54
2017-08-24T21:59:30.774Z,21.51
2017-08-24T22:04:33.038Z,21.45
2017-08-24T22:09:35.336Z,21.39
2017-08-24T22:14:37.930Z,21.32
2017-08-24T22:19:40.190Z,21.21
2017-08-24T22:24:42.433Z,21.14
2017-08-24T22:29:44.636Z,21.06
2017-08-24T22:34:46.985Z,21.01
2017-08-24T22:39:49.261Z,20.91
2017-08-24T22:44:51.649Z,20.78
2017-08-24T22:49:53.973Z,20.74
2017-08-24T22:55:02.260Z,20.71
2017-08-24T23:00:10.781Z,20.68
2017-08-24T23:05:13.511Z,20.71
2017-08-24T23:10:16.159Z,20.78
2017-08-24T23:15:18.735Z,20.90
2017-08-24T23:20:21.207Z,20.92
2017-08-24T23:25:23.863Z,20.95
2017-08-24T23:30:26.180Z,20.95
2017-08-24T23:35:28.659Z,20.87
2017-08-24T23:40:31.082Z,20.80
2017-08-24T23:45:33.373Z,20.88
2017-08-24T23:50:35.670Z,20.96
2017-08-24T23:55:38.021Z,20.93
